ESOW/VST METAR and TAF weather

Enter ICAO airport designator
Station Type Date Time Source
ESOW METAR 2022/01/26 08:20 UTC NOAA

ESOW 260820Z 19009KT 9999 BKN008 02/01 Q1008


Station Type Date Time Source
ESOW Decoded METAR 2022/01/26 08:20 UTC NOAA

Vasteras / Hasslo, Sweden (ESOW) 59-35N 016-38E 31M
Jan 26, 2022 - 03:20 AM EST / 2022.01.26 0820 UTC
Wind: from the S (190 degrees) at 10 MPH (9 KT):0
Visibility: greater than 7 mile(s):0
Sky conditions: mostly cloudy
Temperature: 35 F (2 C)
Windchill: 26 F (-3 C):1
Dew Point: 33 F (1 C)
Relative Humidity: 93%
Pressure (altimeter): 29.77 in. Hg (1008 hPa)
ob: ESOW 260820Z 19009KT 9999 BKN008 02/01 Q1008
cycle: 8

Station Type Date Time Source
ESOW TAF 2021/05/19 03:36 UTC NOAA

TAF TAF ESOW 190230Z 1903/1915 27005KT CAVOK

Example: see airport list